首页
METAR-TAF:

METAR-TAF

机场 :

卡蒂马穆利洛, 纳米比亚

纬度: 17-38-04S, 经度: 024-10-36E, 海拔: 985米

当前天气观测

该预报发布于1小时和4分钟前的03:00 UTC
静风
温度 7°C
湿度 70%
气压 1023 hPa

METAR: FYKM 280300Z AUTO 00000KT //// // ////// 07/02 Q1023

时间: 06:04 (04:04 UTC)

预报

该预报发布于2小时和4分钟前的02:00 UTC
预报有效从28日的 03点(UTC)到 28日的 12点(UTC)
风速节,风向
能见度10公里或以上
1500米以下无云,无积雨云
成为
从 28日的 07点(UTC)到 28日的 09点(UTC)
风速5节,风向

TAF: FYKM 280200Z 2803/2812 00000KT CAVOK BECMG 2807/2809 08005KT

超过4000个机场的气象观测和天气预报(METAR&TAF报告)。

可查询的气象台以黄色和红色小点在地图上表示。

将鼠标移到小点上方,可查看气象台名称。

然后点击查看天气观测和预报。

如需切换地图:点击带黑十字的绿色按钮放大地图;点击带横线的绿色按钮缩小地图;或者点击绿色箭头查看邻近地区的地图。


METAR-TAF: